createdAt,value
2023-04-29T00:02:00.348Z,17.64
2023-04-29T00:04:35.042Z,17.64
2023-04-29T00:07:09.479Z,17.64
2023-04-29T00:09:42.285Z,17.63
2023-04-29T00:12:14.993Z,17.61
2023-04-29T00:14:47.683Z,17.61
2023-04-29T00:17:20.430Z,17.60
2023-04-29T00:19:54.949Z,17.57
2023-04-29T00:22:28.030Z,17.57
2023-04-29T00:25:00.907Z,17.58
2023-04-29T00:27:33.713Z,17.57
2023-04-29T00:30:08.263Z,17.58
2023-04-29T00:32:41.009Z,17.60
2023-04-29T00:35:15.152Z,17.59
2023-04-29T00:37:48.233Z,17.60
2023-04-29T00:40:21.054Z,17.59
2023-04-29T00:42:53.988Z,17.60
2023-04-29T00:45:27.637Z,17.59
2023-04-29T00:48:00.382Z,17.60
2023-04-29T00:50:34.751Z,17.58
2023-04-29T00:53:08.296Z,17.57
2023-04-29T00:55:42.465Z,17.57
2023-04-29T00:58:15.619Z,17.57
2023-04-29T01:00:49.622Z,17.57
2023-04-29T01:03:23.952Z,17.55
2023-04-29T01:06:04.676Z,17.55
2023-04-29T01:08:42.400Z,17.54
2023-04-29T01:11:17.443Z,17.54
2023-04-29T01:13:51.713Z,17.56
2023-04-29T01:16:26.529Z,17.54
2023-04-29T01:19:01.496Z,17.54
2023-04-29T01:21:46.357Z,17.54
2023-04-29T01:24:20.573Z,17.57
2023-04-29T01:26:57.353Z,17.56
2023-04-29T01:29:34.371Z,17.56
2023-04-29T01:32:09.327Z,17.56
2023-04-29T01:34:45.749Z,17.57
2023-04-29T01:37:21.485Z,17.55
2023-04-29T01:39:59.241Z,17.58
2023-04-29T01:42:37.528Z,17.56
2023-04-29T01:45:12.025Z,17.57
2023-04-29T01:47:46.424Z,17.58
2023-04-29T01:50:19.142Z,17.59
2023-04-29T01:52:52.162Z,17.61
2023-04-29T01:55:26.308Z,17.62
2023-04-29T01:57:59.283Z,17.65
2023-04-29T02:00:32.059Z,17.65
2023-04-29T02:03:05.256Z,17.68
2023-04-29T02:05:38.119Z,17.67
2023-04-29T02:08:10.910Z,17.70
2023-04-29T02:10:52.482Z,17.69
2023-04-29T02:13:25.340Z,17.69
2023-04-29T02:15:58.680Z,17.68
2023-04-29T02:18:31.409Z,17.68
2023-04-29T02:21:04.172Z,17.66
2023-04-29T02:23:37.632Z,17.64
2023-04-29T02:26:12.181Z,17.63
2023-04-29T02:28:44.849Z,17.62
2023-04-29T02:31:17.694Z,17.61
2023-04-29T02:33:50.606Z,17.61
2023-04-29T02:36:24.707Z,17.61
2023-04-29T02:38:57.442Z,17.61
2023-04-29T02:41:31.963Z,17.60
2023-04-29T02:44:04.865Z,17.61
2023-04-29T02:46:39.497Z,17.60
2023-04-29T02:49:12.771Z,17.61
2023-04-29T02:51:45.480Z,17.60
2023-04-29T02:54:18.315Z,17.61
2023-04-29T02:56:52.382Z,17.60
2023-04-29T02:59:25.363Z,17.61
2023-04-29T03:01:58.162Z,17.62
2023-04-29T03:04:31.012Z,17.61
2023-04-29T03:07:04.948Z,17.62
2023-04-29T03:09:37.592Z,17.63
2023-04-29T03:12:11.748Z,17.63
2023-04-29T03:14:44.465Z,17.62
2023-04-29T03:17:17.148Z,17.63
2023-04-29T03:19:50.181Z,17.64
2023-04-29T03:22:23.025Z,17.62
2023-04-29T03:24:56.202Z,17.61
2023-04-29T03:27:30.407Z,17.63
2023-04-29T03:30:03.502Z,17.60
2023-04-29T03:32:36.453Z,17.60
2023-04-29T03:35:14.090Z,17.57
2023-04-29T03:37:48.183Z,17.55
2023-04-29T03:40:20.903Z,17.52
2023-04-29T03:42:54.996Z,17.48
2023-04-29T03:45:27.694Z,17.44
2023-04-29T03:48:00.526Z,17.40
2023-04-29T03:50:33.287Z,17.37
2023-04-29T03:53:06.437Z,17.34
2023-04-29T03:55:39.144Z,17.31
2023-04-29T03:58:13.367Z,17.28
2023-04-29T04:00:46.969Z,17.26
2023-04-29T04:03:20.152Z,17.23
2023-04-29T04:05:53.509Z,17.20
2023-04-29T04:08:26.845Z,17.19
2023-04-29T04:11:03.188Z,17.15
2023-04-29T04:13:37.399Z,17.11
2023-04-29T04:16:10.924Z,17.10
2023-04-29T04:18:43.740Z,17.06
2023-04-29T04:21:16.462Z,17.04
2023-04-29T04:23:49.119Z,17.01
2023-04-29T04:26:23.102Z,16.98
2023-04-29T04:28:57.165Z,16.94
2023-04-29T04:31:30.126Z,16.92
2023-04-29T04:34:03.134Z,16.88
2023-04-29T04:36:35.816Z,16.88
2023-04-29T04:39:08.611Z,16.86
2023-04-29T04:41:41.354Z,16.85
2023-04-29T04:44:15.537Z,16.86
2023-04-29T04:46:48.264Z,16.87
2023-04-29T04:49:21.060Z,16.89
2023-04-29T04:51:54.122Z,16.90
2023-04-29T04:54:26.955Z,16.93
2023-04-29T04:56:59.806Z,16.95
2023-04-29T04:59:34.554Z,16.98
2023-04-29T05:02:08.701Z,17.01
2023-04-29T05:04:41.731Z,17.03
2023-04-29T05:07:14.955Z,17.07
2023-04-29T05:09:47.683Z,17.07
2023-04-29T05:12:20.543Z,17.09
2023-04-29T05:14:55.859Z,17.14
2023-04-29T05:17:28.680Z,17.19
2023-04-29T05:20:01.444Z,17.26
2023-04-29T05:22:34.176Z,17.40
2023-04-29T05:25:07.264Z,17.56
2023-04-29T05:27:40.338Z,17.79
2023-04-29T05:30:15.963Z,18.08
2023-04-29T05:32:49.088Z,18.42
2023-04-29T05:35:22.117Z,18.77
2023-04-29T05:37:54.800Z,19.12
2023-04-29T05:40:27.479Z,19.44
2023-04-29T05:43:00.166Z,19.69
2023-04-29T05:45:34.618Z,19.91
2023-04-29T05:48:07.726Z,20.10
2023-04-29T05:50:40.937Z,20.29
2023-04-29T05:53:13.820Z,20.47
2023-04-29T05:55:48.019Z,20.66
2023-04-29T05:58:21.875Z,20.85
2023-04-29T06:00:56.825Z,21.05
2023-04-29T06:03:31.375Z,21.26
2023-04-29T06:06:04.809Z,21.43
2023-04-29T06:08:37.693Z,21.59
2023-04-29T06:11:10.382Z,21.70
2023-04-29T06:13:43.126Z,21.79
2023-04-29T06:16:17.493Z,21.86
2023-04-29T06:18:50.433Z,21.91
2023-04-29T06:21:23.335Z,21.96
2023-04-29T06:23:56.296Z,21.99
2023-04-29T06:26:29.066Z,22.01
2023-04-29T06:29:02.162Z,21.99
2023-04-29T06:31:38.431Z,21.98
2023-04-29T06:34:11.511Z,21.92
2023-04-29T06:36:44.230Z,21.87
2023-04-29T06:39:17.173Z,21.82
2023-04-29T06:41:49.792Z,21.74
2023-04-29T06:44:22.650Z,21.67
2023-04-29T06:46:57.203Z,21.60
2023-04-29T06:49:30.081Z,21.55
2023-04-29T06:52:03.116Z,21.49
2023-04-29T06:54:35.858Z,21.49
2023-04-29T06:57:08.508Z,21.48
2023-04-29T06:59:41.384Z,21.50
2023-04-29T07:02:16.407Z,21.52
2023-04-29T07:04:50.432Z,21.58
2023-04-29T07:07:23.197Z,21.67
2023-04-29T07:09:56.313Z,21.79
2023-04-29T07:12:29.266Z,21.91
2023-04-29T07:15:02.737Z,22.04
2023-04-29T07:17:37.199Z,22.15
2023-04-29T07:20:10.517Z,22.28
2023-04-29T07:22:43.545Z,22.38
2023-04-29T07:25:16.344Z,22.48
2023-04-29T07:27:49.029Z,22.56
2023-04-29T07:30:21.788Z,22.63
2023-04-29T07:32:55.863Z,22.67
2023-04-29T07:35:28.750Z,22.74
2023-04-29T07:38:01.446Z,22.77
2023-04-29T07:40:34.220Z,22.82
2023-04-29T07:43:09.104Z,22.85
2023-04-29T07:45:41.815Z,22.88
2023-04-29T07:48:15.900Z,22.93
2023-04-29T07:50:48.705Z,22.97
2023-04-29T07:53:21.854Z,23.00
2023-04-29T07:55:54.607Z,23.05
2023-04-29T07:58:29.173Z,23.12
2023-04-29T08:01:06.342Z,23.18
2023-04-29T08:03:41.823Z,23.26
2023-04-29T08:06:15.192Z,23.34
2023-04-29T08:08:47.880Z,23.44
2023-04-29T08:11:21.279Z,23.55
2023-04-29T08:13:53.988Z,23.63
2023-04-29T08:16:27.127Z,23.71
2023-04-29T08:19:01.256Z,23.72
2023-04-29T08:21:34.829Z,23.73
2023-04-29T08:24:07.691Z,23.73
2023-04-29T08:26:41.070Z,23.73
2023-04-29T08:29:13.999Z,23.76
2023-04-29T08:31:46.969Z,23.78
2023-04-29T08:34:21.410Z,23.83
2023-04-29T08:36:54.163Z,23.86
2023-04-29T08:39:26.903Z,23.87
2023-04-29T08:42:00.210Z,23.85
2023-04-29T08:44:34.114Z,23.84
2023-04-29T08:47:07.509Z,23.80
2023-04-29T08:49:42.046Z,23.75
2023-04-29T08:52:14.778Z,23.68
2023-04-29T08:54:47.456Z,23.65
2023-04-29T08:57:20.614Z,23.65
2023-04-29T08:59:53.623Z,23.70
2023-04-29T09:02:27.318Z,23.80
2023-04-29T09:05:05.788Z,23.91
2023-04-29T09:07:39.290Z,24.00
2023-04-29T09:10:12.443Z,24.06
2023-04-29T09:12:46.199Z,24.10
2023-04-29T09:15:19.036Z,24.10
2023-04-29T09:17:51.968Z,24.08
2023-04-29T09:20:29.989Z,24.07
2023-04-29T09:23:03.635Z,24.05
2023-04-29T09:25:36.647Z,24.04
2023-04-29T09:28:15.996Z,24.04
2023-04-29T09:30:50.691Z,24.06
2023-04-29T09:33:23.696Z,24.09
2023-04-29T09:35:57.736Z,24.14
2023-04-29T09:38:30.403Z,24.18
2023-04-29T09:41:12.099Z,24.25
2023-04-29T09:43:44.797Z,24.36
2023-04-29T09:46:17.825Z,24.46
2023-04-29T09:48:50.705Z,24.58
2023-04-29T09:51:25.087Z,24.66
2023-04-29T09:53:57.787Z,24.73
2023-04-29T09:56:36.156Z,24.81
2023-04-29T09:59:09.583Z,24.89
2023-04-29T10:01:42.288Z,24.95
2023-04-29T10:04:16.856Z,24.99
2023-04-29T10:06:52.500Z,25.02
2023-04-29T10:09:25.621Z,25.02
2023-04-29T10:11:58.369Z,25.03
2023-04-29T10:14:32.841Z,25.06
2023-04-29T10:17:09.795Z,25.09
2023-04-29T10:19:48.759Z,25.12
2023-04-29T10:22:28.608Z,25.18
2023-04-29T10:25:02.413Z,25.19
2023-04-29T10:27:35.410Z,25.23
2023-04-29T10:30:10.418Z,25.25
2023-04-29T10:32:50.294Z,25.27
2023-04-29T10:35:24.608Z,25.28
2023-04-29T10:38:02.569Z,25.29
2023-04-29T10:40:44.023Z,25.31
2023-04-29T10:43:17.000Z,25.33
2023-04-29T10:45:49.724Z,25.32
2023-04-29T10:48:24.621Z,25.35
2023-04-29T10:51:03.846Z,25.37
2023-04-29T10:53:58.070Z,25.38
2023-04-29T10:56:37.183Z,25.41
2023-04-29T10:59:17.141Z,25.44
2023-04-29T11:01:51.169Z,25.49
2023-04-29T11:04:24.254Z,25.54
2023-04-29T11:06:58.196Z,25.59
2023-04-29T11:09:34.263Z,25.67
2023-04-29T11:12:11.329Z,25.74
2023-04-29T11:14:44.835Z,25.81
2023-04-29T11:17:19.967Z,25.86
2023-04-29T11:19:53.359Z,25.89
2023-04-29T11:22:27.069Z,25.93
2023-04-29T11:25:02.042Z,25.97
2023-04-29T11:27:35.696Z,26.00
2023-04-29T11:30:09.042Z,26.04
2023-04-29T11:32:42.892Z,26.08
2023-04-29T11:35:16.887Z,26.11
2023-04-29T11:37:49.654Z,26.13
2023-04-29T11:40:23.813Z,26.15
2023-04-29T11:42:56.600Z,26.19
2023-04-29T11:45:29.367Z,26.25
2023-04-29T11:48:02.289Z,26.32
2023-04-29T11:50:36.446Z,26.42
2023-04-29T11:53:09.353Z,26.55
2023-04-29T11:55:45.734Z,26.67
2023-04-29T11:58:18.732Z,26.82
2023-04-29T12:00:52.009Z,26.95
2023-04-29T12:03:24.965Z,27.09
2023-04-29T12:05:58.522Z,27.19
2023-04-29T12:08:34.302Z,27.27
2023-04-29T12:11:08.964Z,27.32
2023-04-29T12:13:42.227Z,27.35
2023-04-29T12:16:15.102Z,27.36
2023-04-29T12:18:48.253Z,27.35
2023-04-29T12:21:21.223Z,27.35
2023-04-29T12:23:54.520Z,27.34
2023-04-29T12:26:30.467Z,27.30
2023-04-29T12:29:03.212Z,27.25
2023-04-29T12:31:36.546Z,27.19
2023-04-29T12:34:10.402Z,27.11
2023-04-29T12:36:43.367Z,27.03
2023-04-29T12:39:16.530Z,26.96
2023-04-29T12:41:50.704Z,26.90
2023-04-29T12:44:23.690Z,26.84
2023-04-29T12:46:58.446Z,26.80
2023-04-29T12:49:31.848Z,26.74
2023-04-29T12:52:05.050Z,26.69
2023-04-29T12:54:37.978Z,26.64
2023-04-29T12:57:12.655Z,26.61
2023-04-29T12:59:45.306Z,26.59
2023-04-29T13:02:18.103Z,26.58
2023-04-29T13:04:51.451Z,26.59
2023-04-29T13:07:24.327Z,26.62
2023-04-29T13:09:57.530Z,26.70
2023-04-29T13:12:31.593Z,26.78
2023-04-29T13:15:04.641Z,26.87
2023-04-29T13:17:37.735Z,26.93
2023-04-29T13:20:11.819Z,26.98
2023-04-29T13:22:44.762Z,27.01
2023-04-29T13:25:17.643Z,27.01
2023-04-29T13:27:51.708Z,27.01
2023-04-29T13:30:24.479Z,27.00
2023-04-29T13:33:03.133Z,27.03
2023-04-29T13:35:41.833Z,27.06
2023-04-29T13:38:14.754Z,27.10
2023-04-29T13:40:51.210Z,27.16
2023-04-29T13:43:36.620Z,27.20
2023-04-29T13:46:11.835Z,27.23
2023-04-29T13:49:17.428Z,27.27
2023-04-29T13:52:16.966Z,27.24
2023-04-29T13:59:51.638Z,27.16
2023-04-29T14:02:26.503Z,27.14
2023-04-29T14:04:59.825Z,27.13
2023-04-29T14:07:32.889Z,27.15
2023-04-29T14:10:06.312Z,27.16
2023-04-29T14:12:39.060Z,27.19
2023-04-29T14:15:13.730Z,27.20
2023-04-29T14:17:46.468Z,27.23
2023-04-29T14:20:19.195Z,27.22
2023-04-29T14:22:52.229Z,27.21
2023-04-29T14:25:26.146Z,27.20
2023-04-29T14:28:00.043Z,27.18
2023-04-29T14:30:34.219Z,27.15
2023-04-29T14:33:07.282Z,27.13
2023-04-29T14:35:40.133Z,27.11
2023-04-29T14:38:12.764Z,27.03
2023-04-29T14:40:45.696Z,26.98
2023-04-29T14:43:18.458Z,26.91
2023-04-29T14:45:52.554Z,26.84
2023-04-29T14:48:25.271Z,26.74
2023-04-29T14:50:57.931Z,26.66
2023-04-29T14:53:30.609Z,26.55
2023-04-29T14:56:03.809Z,26.47
2023-04-29T14:58:36.507Z,26.38
2023-04-29T15:01:10.575Z,26.30
2023-04-29T15:03:44.839Z,26.21
2023-04-29T15:06:17.893Z,26.13
2023-04-29T15:08:50.603Z,26.07
2023-04-29T15:11:24.129Z,26.02
2023-04-29T15:13:56.932Z,25.98
2023-04-29T15:16:32.113Z,25.96
2023-04-29T15:19:04.865Z,25.93
2023-04-29T15:21:37.520Z,25.91
2023-04-29T15:24:10.265Z,25.85
2023-04-29T15:26:43.410Z,25.78
2023-04-29T15:29:16.164Z,25.69
2023-04-29T15:31:50.290Z,25.60
2023-04-29T15:34:23.110Z,25.51
2023-04-29T15:36:56.165Z,25.41
2023-04-29T15:39:28.850Z,25.29
2023-04-29T15:42:01.945Z,25.19
2023-04-29T15:44:34.794Z,25.09
2023-04-29T15:47:09.128Z,24.99
2023-04-29T15:49:42.593Z,24.91
2023-04-29T15:52:15.278Z,24.81
2023-04-29T15:54:48.002Z,24.73
2023-04-29T15:57:21.100Z,24.63
2023-04-29T15:59:54.165Z,24.55
2023-04-29T16:02:28.472Z,24.47
2023-04-29T16:05:01.522Z,24.40
2023-04-29T16:07:35.550Z,24.34
2023-04-29T16:10:09.990Z,24.27
2023-04-29T16:12:43.075Z,24.22
2023-04-29T16:15:16.018Z,24.16
2023-04-29T16:17:50.643Z,24.08
2023-04-29T16:20:23.456Z,24.04
2023-04-29T16:22:56.108Z,23.99
2023-04-29T16:25:29.033Z,23.95
2023-04-29T16:28:01.833Z,23.90
2023-04-29T16:30:34.589Z,23.86
2023-04-29T16:33:09.311Z,23.83
2023-04-29T16:35:42.119Z,23.77
2023-04-29T16:38:14.812Z,23.70
2023-04-29T16:40:49.447Z,23.67
2023-04-29T16:43:23.274Z,23.62
2023-04-29T16:45:56.057Z,23.57
2023-04-29T16:48:31.478Z,23.51
2023-04-29T16:51:04.325Z,23.47
2023-04-29T16:53:37.224Z,23.40
2023-04-29T16:56:09.963Z,23.36
2023-04-29T16:58:42.653Z,23.32
2023-04-29T17:01:15.698Z,23.26
2023-04-29T17:03:50.312Z,23.24
2023-04-29T17:06:23.283Z,23.18
2023-04-29T17:08:56.767Z,23.15
2023-04-29T17:11:29.540Z,23.12
2023-04-29T17:14:03.374Z,23.09
2023-04-29T17:16:36.363Z,23.03
2023-04-29T17:19:10.578Z,22.99
2023-04-29T17:21:43.342Z,22.93
2023-04-29T17:24:16.357Z,22.88
2023-04-29T17:26:49.224Z,22.81
2023-04-29T17:29:21.961Z,22.74
2023-04-29T17:31:59.766Z,22.67
2023-04-29T17:34:34.993Z,22.59
2023-04-29T17:37:07.973Z,22.51
2023-04-29T17:39:40.658Z,22.43
2023-04-29T17:42:13.334Z,22.35
2023-04-29T17:44:46.082Z,22.27
2023-04-29T17:47:19.376Z,22.16
2023-04-29T17:49:54.457Z,22.10
2023-04-29T17:52:27.332Z,22.01
2023-04-29T17:55:00.156Z,21.91
2023-04-29T17:57:32.927Z,21.82
2023-04-29T18:00:07.456Z,21.71
2023-04-29T18:02:40.246Z,21.59
2023-04-29T18:05:14.601Z,21.52
2023-04-29T18:07:47.340Z,21.45
2023-04-29T18:10:20.105Z,21.38
2023-04-29T18:12:52.929Z,21.30
2023-04-29T18:15:25.640Z,21.24
2023-04-29T18:17:58.456Z,21.20
2023-04-29T18:20:32.593Z,21.15
2023-04-29T18:23:05.305Z,21.10
2023-04-29T18:25:38.853Z,21.04
2023-04-29T18:28:24.246Z,21.01
2023-04-29T18:30:58.127Z,20.96
2023-04-29T18:33:31.105Z,20.91
2023-04-29T18:36:05.445Z,20.87
2023-04-29T18:38:38.257Z,20.82
2023-04-29T18:41:12.091Z,20.77
2023-04-29T18:43:44.872Z,20.74
2023-04-29T18:46:17.654Z,20.68
2023-04-29T18:48:50.308Z,20.64
2023-04-29T18:51:24.378Z,20.59
2023-04-29T18:53:57.300Z,20.55
2023-04-29T18:56:30.070Z,20.50
2023-04-29T18:59:02.820Z,20.45
2023-04-29T19:01:35.622Z,20.41
2023-04-29T19:04:09.992Z,20.34
2023-04-29T19:06:44.583Z,20.29
2023-04-29T19:09:17.262Z,20.22
2023-04-29T19:11:49.949Z,20.16
2023-04-29T19:14:22.715Z,20.10
2023-04-29T19:16:55.972Z,20.00
2023-04-29T19:19:28.720Z,19.91
2023-04-29T19:22:02.898Z,19.84
2023-04-29T19:24:37.017Z,19.75
2023-04-29T19:27:09.819Z,19.67
2023-04-29T19:29:42.645Z,19.58
2023-04-29T19:32:15.310Z,19.51
2023-04-29T19:34:48.160Z,19.44
2023-04-29T19:37:22.202Z,19.38
2023-04-29T19:39:55.524Z,19.34
2023-04-29T19:42:28.327Z,19.30
2023-04-29T19:45:01.437Z,19.24
2023-04-29T19:47:34.292Z,19.21
2023-04-29T19:50:07.682Z,19.16
2023-04-29T19:52:41.736Z,19.15
2023-04-29T19:55:14.667Z,19.11
2023-04-29T19:57:47.366Z,19.08
2023-04-29T20:00:20.040Z,19.07
2023-04-29T20:02:53.490Z,19.06
2023-04-29T20:05:26.539Z,19.05
2023-04-29T20:08:00.667Z,19.02
2023-04-29T20:10:33.472Z,19.02
2023-04-29T20:13:06.168Z,19.00
2023-04-29T20:15:38.922Z,18.99
2023-04-29T20:18:11.770Z,19.00
2023-04-29T20:20:44.502Z,19.00
2023-04-29T20:23:18.820Z,18.98
2023-04-29T20:25:52.769Z,18.94
2023-04-29T20:28:25.639Z,18.95
2023-04-29T20:30:58.343Z,18.94
2023-04-29T20:33:31.072Z,18.92
2023-04-29T20:36:06.722Z,18.89
2023-04-29T20:38:40.897Z,18.87
2023-04-29T20:41:13.586Z,18.84
2023-04-29T20:43:46.208Z,18.79
2023-04-29T20:46:18.978Z,18.76
2023-04-29T20:48:51.691Z,18.71
2023-04-29T20:51:24.571Z,18.67
2023-04-29T20:53:58.964Z,18.63
2023-04-29T20:56:31.679Z,18.59
2023-04-29T20:59:04.336Z,18.53
2023-04-29T21:01:37.946Z,18.48
2023-04-29T21:04:10.771Z,18.45
2023-04-29T21:06:43.716Z,18.41
2023-04-29T21:09:18.792Z,18.36
2023-04-29T21:11:51.769Z,18.33
2023-04-29T21:14:24.457Z,18.28
2023-04-29T21:16:57.185Z,18.22
2023-04-29T21:19:29.794Z,18.18
2023-04-29T21:22:02.494Z,18.10
2023-04-29T21:24:36.604Z,18.04
2023-04-29T21:27:09.302Z,18.03
2023-04-29T21:29:42.101Z,17.99
2023-04-29T21:32:18.278Z,17.95
2023-04-29T21:34:50.935Z,17.92
2023-04-29T21:37:23.746Z,17.86
2023-04-29T21:40:00.279Z,17.83
2023-04-29T21:42:34.694Z,17.78
2023-04-29T21:45:08.092Z,17.73
2023-04-29T21:47:40.965Z,17.65
2023-04-29T21:50:13.703Z,17.60
2023-04-29T21:52:46.371Z,17.55
2023-04-29T21:55:20.528Z,17.48
2023-04-29T21:57:53.567Z,17.44
2023-04-29T22:00:33.062Z,17.37
2023-04-29T22:05:41.436Z,17.25
2023-04-29T22:08:14.135Z,17.19
2023-04-29T22:10:48.267Z,17.15
2023-04-29T22:13:20.973Z,17.07
2023-04-29T22:15:53.674Z,17.00
2023-04-29T22:18:26.368Z,16.96
2023-04-29T22:20:59.255Z,16.93
2023-04-29T22:23:31.997Z,16.88
2023-04-29T22:26:06.114Z,16.85
2023-04-29T22:28:38.757Z,16.83
2023-04-29T22:31:11.441Z,16.79
2023-04-29T22:33:44.145Z,16.77
2023-04-29T22:36:17.522Z,16.72
2023-04-29T22:38:50.342Z,16.69
2023-04-29T22:41:24.417Z,16.64
2023-04-29T22:43:57.906Z,16.60
2023-04-29T22:46:30.674Z,16.58
2023-04-29T22:49:03.534Z,16.58
2023-04-29T22:51:36.162Z,16.58
2023-04-29T22:54:09.132Z,16.54
2023-04-29T22:56:43.178Z,16.52
2023-04-29T22:59:15.893Z,16.52
2023-04-29T23:01:48.725Z,16.50
2023-04-29T23:04:23.047Z,16.48
2023-04-29T23:06:55.913Z,16.48
2023-04-29T23:09:28.876Z,16.47
2023-04-29T23:12:03.629Z,16.49
2023-04-29T23:14:36.338Z,16.50
2023-04-29T23:17:08.961Z,16.51
2023-04-29T23:19:42.482Z,16.52
2023-04-29T23:22:17.049Z,16.51
2023-04-29T23:24:49.735Z,16.50
2023-04-29T23:27:23.790Z,16.48
2023-04-29T23:29:56.641Z,16.45
2023-04-29T23:32:29.343Z,16.41
2023-04-29T23:35:02.177Z,16.37
2023-04-29T23:37:34.853Z,16.33
2023-04-29T23:40:07.913Z,16.29
2023-04-29T23:42:42.471Z,16.26
2023-04-29T23:45:15.231Z,16.22
2023-04-29T23:47:47.942Z,16.22
2023-04-29T23:50:20.688Z,16.20
2023-04-29T23:52:53.384Z,16.21
2023-04-29T23:55:26.405Z,16.21
2023-04-29T23:58:00.753Z,16.21
